Fruita, CO (81521)

5:33 PM MST on January 29, 2015 (GMT -0700)
Comstock West | Change Station
CLOSE
Current Station
Personal Weather Station
Location: Fruita, CO
Elevation: 4507 ft
Nearby Weather Stations

Elev 4507 ft 39.17 °N, 108.74 °W | Updated 3 minutes ago

Partly Cloudy
Partly Cloudy
51.2 °F
Feels Like 51.2 °F
N
0.0
Wind Variable Wind from SSE
Gusts 0.0 mph

Today
High -- | Low -- °F
--% Chance of Precip.
Yesterday
High -- | Low -- °F
Precip. -- in
7:24 AM 5:32 PM
Waxing Gibbous, 78% visible
Pressure 30.24 in
Visibility 10.0 miles
Clouds Clear
Dew Point 31 °F
Humidity 46%
Rainfall 0.00 in
Snow Depth Not available.
UV 0 out of 12
Pollen .10 out of 12
Air Quality Not available.
Flu Activity Not available.
METAR KGJT 292353Z 17004KT 10SM CLR 10/M02 A3026 RMK AO2 SLP240 6//// T01001017 10117 20083 55004

More Conditions Fewer Conditions

Pressure 30.24 in
Visibility 10.0 miles
Clouds Clear
Dew Point 31 °F
Humidity 46%
Rainfall 0.00 in
Snow Depth Not available.
UV 0 out of 12
Pollen .10 out of 12
Air Quality Not available.
Flu Activity Not available.
METAR KGJT 292353Z 17004KT 10SM CLR 10/M02 A3026 RMK AO2 SLP240 6//// T01001017 10117 20083 55004

More Conditions Fewer Conditions

10-Day Weather Forecast

Almanac

Astronomy

Jan. 29, 2015 Rise Set
Actual Time
Civil Twilight
Nautical Twilight
Astronomical Twilight
Moon
Length of Visible Light
Length of Day
Tomorrow will be .
, % of the Moon is Illuminated

Today's Extremes

State Highs State Lows

Community

WunderPhotos

Upload Photos

1,791,656 photos uploaded!

WunderBlogs® & News

Nearby

Air Quality

  Air Quality AQ Index Pollutant
Not available.

Snow Depth

Station Depth Elevation

Earthquake Activity

City Distance Mag. Time & Date
Minimum magnitude displayed is 2.5.

Coastal Water Temperatures

Place Temperature

Nearby Weather Stations